Aérodrome :
LOGIN :

S'inscrire | Disclaimer

   EN    FR    IT 

 










Légende :    VFR   VFR Marginal   IFR   IFR Intensif   IFR Très Intensif
Visi : 
Plafond : 
>= 8 km
>= 3000ft
5 à 8 km
1000 à 3000 ft
1500m à 5 km
500 à 1000 ft
800 à 1500m
200 à 500 ft
< 800m
< 200 ft
Symboles :   Orages  Brouillard  Fortes neiges  Fortes précipitations  Vent > 20 kt
SIGMETs :   Divers  Orages  Givrage  Turbulence  Onde Orograph.  Cendres Volcan.







- Altitude de l'aérodrome : 100 ft
- Code IATA : DCI


LIED - Decimomannu Air Base

DERNIER METAR :
  • 171055Z 14005KT 9999 TS SCT015CB SCT025 22/21 Q1012 RMK OVC VIS MIN 9999 WIND THR35 14005KT WIND THR17 /////KT BLU

METARs EXPIRÉS :
  • 170955Z 15005KT 9999 FEW015CB SCT025 24/22 Q1012 RMK BKN VIS MIN 9999 WIND THR35 14006KT WIND THR17 /////KT BLU
  • 170855Z 27002KT 8000 FEW003 SCT025 21/19 Q1012 RMK BKN VIS MIN 8000 WIND THR35 34002KT WIND THR17 /////KT BLU

TAF AMD TAF LIED
Valide du 17 à 10h jusqu'au 17 à 18h UTC


171000Z 1710/1718 15010KT 9999 FEW010 FEW018CB SCT020 BKN040
TEMPO 1710/1716 4000 TSRA BKN025
Pas de NOTAMs connus pour ce terrain.
1 SIGMET publié pour la FIR Roma (LIRR) :
 
Orages noyés dans la masse
LIRR SIGMET 5 VALID 171100/171300 LIIB
LIRR ROMA FIR EMBD TS FCST WI N3955 E00802 - N3858 E00758 - N3825 E00925 - N3746 E01049 - N3833 E01242 - N4117 E01316 - N4342 E01058 - N4312 E00946 - N4137 E00947 - N4100 E01122 - N3947 E01101 - N3955 E00802 TOP FL390 STNR NC=



MET'MAP, la Météo Aéronautique d'un coup d'oeil ! - Copyright ORBIFLY Décembre 2007 - Disclaimer

ORBIFLY MET'MAP TEAM :

Programmation & Développement : Alexandra Zaïnal
Conception & Développement : Baudouin d'Aumeries
Co-Programmation & Développement : Marc-Olivier Méhu
Soutien technique & logistique : Manuel Goepfert

Contact : metmap@orbifly.com




SOURCES & CREDITS :

   NOAA